Terminal Aerodrome Forecast
Issued by NWS Sterling, VA

Current Version | Previous Version | Text Only | Print | Product List | Glossary On
Versions: 1 2 3 4 5 6 7 8 9 10 11 12 13 14 15
000
FTUS41 KLWX 270538
TAFMRB
TAF
KMRB 270538Z 2706/2806 34009KT 5SM -RA OVC050
     FM271000 35005KT P6SM OVC045
     FM272000 32009KT P6SM BKN060=

USA.gov is the U.S. government's official web portal to all federal, state and local government web resources and services.